sensor_id;sensor_type;location;lat;lon;timestamp;temperature;humidity
16263;DHT22;8239;48.594;8.598;2023-10-13T00:01:10;14.00;78.00
16263;DHT22;8239;48.594;8.598;2023-10-13T00:03:39;13.80;78.30
16263;DHT22;8239;48.594;8.598;2023-10-13T00:06:06;13.80;78.80
16263;DHT22;8239;48.594;8.598;2023-10-13T00:08:34;13.70;79.30
16263;DHT22;8239;48.594;8.598;2023-10-13T00:11:02;13.60;80.10
16263;DHT22;8239;48.594;8.598;2023-10-13T00:13:30;13.60;80.40
16263;DHT22;8239;48.594;8.598;2023-10-13T00:16:06;13.60;80.80
16263;DHT22;8239;48.594;8.598;2023-10-13T00:18:36;13.50;81.20
16263;DHT22;8239;48.594;8.598;2023-10-13T00:21:08;13.50;83.50
16263;DHT22;8239;48.594;8.598;2023-10-13T00:23:39;13.40;86.00
16263;DHT22;8239;48.594;8.598;2023-10-13T00:26:09;13.30;87.80
16263;DHT22;8239;48.594;8.598;2023-10-13T00:28:36;13.10;90.00
16263;DHT22;8239;48.594;8.598;2023-10-13T00:31:13;13.00;90.80
16263;DHT22;8239;48.594;8.598;2023-10-13T00:33:42;12.90;91.60
16263;DHT22;8239;48.594;8.598;2023-10-13T00:36:12;12.90;92.60
16263;DHT22;8239;48.594;8.598;2023-10-13T00:38:44;12.90;93.20
16263;DHT22;8239;48.594;8.598;2023-10-13T00:41:14;13.00;93.40
16263;DHT22;8239;48.594;8.598;2023-10-13T00:43:45;13.00;93.60
16263;DHT22;8239;48.594;8.598;2023-10-13T00:46:30;13.00;93.70
16263;DHT22;8239;48.594;8.598;2023-10-13T00:49:00;13.10;93.80
16263;DHT22;8239;48.594;8.598;2023-10-13T00:51:27;13.10;93.80
16263;DHT22;8239;48.594;8.598;2023-10-13T00:54:03;13.10;93.70
16263;DHT22;8239;48.594;8.598;2023-10-13T00:56:33;13.10;93.60
16263;DHT22;8239;48.594;8.598;2023-10-13T00:59:07;13.10;93.40
16263;DHT22;8239;48.594;8.598;2023-10-13T01:01:35;13.00;93.40
16263;DHT22;8239;48.594;8.598;2023-10-13T01:04:04;12.90;93.50
16263;DHT22;8239;48.594;8.598;2023-10-13T01:06:34;12.90;93.70
16263;DHT22;8239;48.594;8.598;2023-10-13T01:09:05;12.80;93.90
16263;DHT22;8239;48.594;8.598;2023-10-13T01:11:39;12.80;94.10
16263;DHT22;8239;48.594;8.598;2023-10-13T01:14:05;12.70;94.20
16263;DHT22;8239;48.594;8.598;2023-10-13T01:16:32;12.70;94.30
16263;DHT22;8239;48.594;8.598;2023-10-13T01:18:58;12.60;94.70
16263;DHT22;8239;48.594;8.598;2023-10-13T01:21:32;12.60;94.50
16263;DHT22;8239;48.594;8.598;2023-10-13T01:24:01;12.50;95.20
16263;DHT22;8239;48.594;8.598;2023-10-13T01:26:33;12.50;95.10
16263;DHT22;8239;48.594;8.598;2023-10-13T01:29:04;12.40;95.20
16263;DHT22;8239;48.594;8.598;2023-10-13T01:31:38;12.40;95.20
16263;DHT22;8239;48.594;8.598;2023-10-13T01:34:11;12.30;95.40
16263;DHT22;8239;48.594;8.598;2023-10-13T01:36:38;12.20;95.60
16263;DHT22;8239;48.594;8.598;2023-10-13T01:39:07;12.20;97.00
16263;DHT22;8239;48.594;8.598;2023-10-13T01:41:36;12.10;97.20
16263;DHT22;8239;48.594;8.598;2023-10-13T01:44:05;12.00;97.30
16263;DHT22;8239;48.594;8.598;2023-10-13T01:46:31;11.90;97.90
16263;DHT22;8239;48.594;8.598;2023-10-13T01:49:02;11.90;98.40
16263;DHT22;8239;48.594;8.598;2023-10-13T01:51:28;11.80;98.70
16263;DHT22;8239;48.594;8.598;2023-10-13T01:53:55;11.70;98.90
16263;DHT22;8239;48.594;8.598;2023-10-13T01:56:23;11.70;99.10
16263;DHT22;8239;48.594;8.598;2023-10-13T01:58:51;11.60;99.40
16263;DHT22;8239;48.594;8.598;2023-10-13T02:01:17;11.60;99.80
16263;DHT22;8239;48.594;8.598;2023-10-13T02:03:52;11.60;99.90
16263;DHT22;8239;48.594;8.598;2023-10-13T02:06:27;11.60;99.90
16263;DHT22;8239;48.594;8.598;2023-10-13T02:08:58;11.60;99.90
16263;DHT22;8239;48.594;8.598;2023-10-13T02:11:32;11.50;99.90
16263;DHT22;8239;48.594;8.598;2023-10-13T02:13:59;11.50;99.90
16263;DHT22;8239;48.594;8.598;2023-10-13T02:16:25;11.50;99.90
16263;DHT22;8239;48.594;8.598;2023-10-13T02:18:53;11.40;99.90
16263;DHT22;8239;48.594;8.598;2023-10-13T02:21:19;11.40;99.90
16263;DHT22;8239;48.594;8.598;2023-10-13T02:23:46;11.30;99.90
16263;DHT22;8239;48.594;8.598;2023-10-13T02:26:25;11.20;99.90
16263;DHT22;8239;48.594;8.598;2023-10-13T02:28:57;11.10;99.90
16263;DHT22;8239;48.594;8.598;2023-10-13T02:31:27;11.10;99.90
16263;DHT22;8239;48.594;8.598;2023-10-13T02:33:53;11.00;99.90
16263;DHT22;8239;48.594;8.598;2023-10-13T02:36:21;10.90;99.90
16263;DHT22;8239;48.594;8.598;2023-10-13T02:38:48;10.90;99.90
16263;DHT22;8239;48.594;8.598;2023-10-13T02:41:18;10.80;99.90
16263;DHT22;8239;48.594;8.598;2023-10-13T02:43:51;10.80;99.90
16263;DHT22;8239;48.594;8.598;2023-10-13T02:46:19;10.70;99.90
16263;DHT22;8239;48.594;8.598;2023-10-13T02:48:47;10.70;99.90
16263;DHT22;8239;48.594;8.598;2023-10-13T02:51:19;10.60;99.90
16263;DHT22;8239;48.594;8.598;2023-10-13T02:53:48;10.60;99.90
16263;DHT22;8239;48.594;8.598;2023-10-13T02:56:15;10.50;99.90
16263;DHT22;8239;48.594;8.598;2023-10-13T02:58:47;10.50;99.90
16263;DHT22;8239;48.594;8.598;2023-10-13T03:01:20;10.40;99.90
16263;DHT22;8239;48.594;8.598;2023-10-13T03:03:50;10.40;99.90
16263;DHT22;8239;48.594;8.598;2023-10-13T03:06:20;10.40;99.90
16263;DHT22;8239;48.594;8.598;2023-10-13T03:08:49;10.30;99.90
16263;DHT22;8239;48.594;8.598;2023-10-13T03:11:16;10.30;99.90
16263;DHT22;8239;48.594;8.598;2023-10-13T03:13:48;10.30;99.90
16263;DHT22;8239;48.594;8.598;2023-10-13T03:16:18;10.20;99.90
16263;DHT22;8239;48.594;8.598;2023-10-13T03:18:47;10.20;99.90
16263;DHT22;8239;48.594;8.598;2023-10-13T03:21:22;10.10;99.90
16263;DHT22;8239;48.594;8.598;2023-10-13T03:23:56;10.10;99.90
16263;DHT22;8239;48.594;8.598;2023-10-13T03:26:29;10.00;99.90
16263;DHT22;8239;48.594;8.598;2023-10-13T03:29:00;10.00;99.90
16263;DHT22;8239;48.594;8.598;2023-10-13T03:31:28;10.00;99.90
16263;DHT22;8239;48.594;8.598;2023-10-13T03:33:56;10.00;99.90
16263;DHT22;8239;48.594;8.598;2023-10-13T03:36:25;10.00;99.90
16263;DHT22;8239;48.594;8.598;2023-10-13T03:39:09;10.00;99.90
16263;DHT22;8239;48.594;8.598;2023-10-13T03:41:37;10.00;99.90
16263;DHT22;8239;48.594;8.598;2023-10-13T03:44:05;10.00;99.90
16263;DHT22;8239;48.594;8.598;2023-10-13T03:46:38;10.00;99.90
16263;DHT22;8239;48.594;8.598;2023-10-13T03:49:08;10.00;99.90
16263;DHT22;8239;48.594;8.598;2023-10-13T03:51:39;10.00;99.90
16263;DHT22;8239;48.594;8.598;2023-10-13T03:54:06;10.00;99.90
16263;DHT22;8239;48.594;8.598;2023-10-13T03:56:34;9.90;99.90
16263;DHT22;8239;48.594;8.598;2023-10-13T03:59:07;9.90;99.90
16263;DHT22;8239;48.594;8.598;2023-10-13T04:01:36;9.90;99.90
16263;DHT22;8239;48.594;8.598;2023-10-13T04:04:13;9.80;99.90
16263;DHT22;8239;48.594;8.598;2023-10-13T04:06:41;9.80;99.90
16263;DHT22;8239;48.594;8.598;2023-10-13T04:09:23;9.80;99.90
16263;DHT22;8239;48.594;8.598;2023-10-13T04:12:08;9.80;99.90
16263;DHT22;8239;48.594;8.598;2023-10-13T04:14:52;9.80;99.90
16263;DHT22;8239;48.594;8.598;2023-10-13T04:17:36;9.80;99.90
16263;DHT22;8239;48.594;8.598;2023-10-13T04:20:12;9.80;99.90
16263;DHT22;8239;48.594;8.598;2023-10-13T04:22:40;9.80;99.90
16263;DHT22;8239;48.594;8.598;2023-10-13T04:25:22;9.80;99.90
16263;DHT22;8239;48.594;8.598;2023-10-13T04:28:00;9.80;99.90
16263;DHT22;8239;48.594;8.598;2023-10-13T04:30:41;9.70;99.90
16263;DHT22;8239;48.594;8.598;2023-10-13T04:33:23;9.70;99.90
16263;DHT22;8239;48.594;8.598;2023-10-13T04:36:04;9.70;99.90
16263;DHT22;8239;48.594;8.598;2023-10-13T04:38:39;9.70;99.90
16263;DHT22;8239;48.594;8.598;2023-10-13T04:41:24;9.70;99.90
16263;DHT22;8239;48.594;8.598;2023-10-13T04:43:57;9.90;99.90
16263;DHT22;8239;48.594;8.598;2023-10-13T04:46:30;9.90;99.90
16263;DHT22;8239;48.594;8.598;2023-10-13T04:49:20;9.90;99.90
16263;DHT22;8239;48.594;8.598;2023-10-13T04:51:55;9.90;99.90
16263;DHT22;8239;48.594;8.598;2023-10-13T04:54:27;9.90;99.90
16263;DHT22;8239;48.594;8.598;2023-10-13T04:56:59;9.80;99.90
16263;DHT22;8239;48.594;8.598;2023-10-13T04:59:46;9.80;99.90
16263;DHT22;8239;48.594;8.598;2023-10-13T05:02:31;9.80;99.90
16263;DHT22;8239;48.594;8.598;2023-10-13T05:05:10;9.80;99.90
16263;DHT22;8239;48.594;8.598;2023-10-13T05:08:10;9.80;99.90
16263;DHT22;8239;48.594;8.598;2023-10-13T05:10:56;9.70;99.90
16263;DHT22;8239;48.594;8.598;2023-10-13T05:13:40;9.70;99.90
16263;DHT22;8239;48.594;8.598;2023-10-13T05:16:25;9.70;99.90
16263;DHT22;8239;48.594;8.598;2023-10-13T05:19:09;9.70;99.90
16263;DHT22;8239;48.594;8.598;2023-10-13T05:21:53;9.70;99.90
16263;DHT22;8239;48.594;8.598;2023-10-13T05:24:39;9.60;99.90
16263;DHT22;8239;48.594;8.598;2023-10-13T05:27:23;9.50;99.90
16263;DHT22;8239;48.594;8.598;2023-10-13T05:30:08;9.50;99.90
16263;DHT22;8239;48.594;8.598;2023-10-13T05:32:53;9.40;99.90
16263;DHT22;8239;48.594;8.598;2023-10-13T05:35:37;9.40;99.90
16263;DHT22;8239;48.594;8.598;2023-10-13T05:38:21;9.30;99.90
16263;DHT22;8239;48.594;8.598;2023-10-13T05:41:18;9.30;99.90
16263;DHT22;8239;48.594;8.598;2023-10-13T05:44:02;9.30;99.90
16263;DHT22;8239;48.594;8.598;2023-10-13T05:46:47;9.30;99.90
16263;DHT22;8239;48.594;8.598;2023-10-13T05:49:27;9.30;99.90
16263;DHT22;8239;48.594;8.598;2023-10-13T05:52:07;9.30;99.90
16263;DHT22;8239;48.594;8.598;2023-10-13T05:54:45;9.40;99.90
16263;DHT22;8239;48.594;8.598;2023-10-13T05:57:31;9.50;99.90
16263;DHT22;8239;48.594;8.598;2023-10-13T06:00:16;9.60;99.90
16263;DHT22;8239;48.594;8.598;2023-10-13T06:03:01;9.70;99.90
16263;DHT22;8239;48.594;8.598;2023-10-13T06:05:54;9.90;99.90
16263;DHT22;8239;48.594;8.598;2023-10-13T06:08:38;10.10;99.90
16263;DHT22;8239;48.594;8.598;2023-10-13T06:11:22;10.20;99.90
16263;DHT22;8239;48.594;8.598;2023-10-13T06:14:08;10.40;99.90
16263;DHT22;8239;48.594;8.598;2023-10-13T06:16:52;10.50;99.90
16263;DHT22;8239;48.594;8.598;2023-10-13T06:19:37;10.80;99.90
16263;DHT22;8239;48.594;8.598;2023-10-13T06:22:21;11.20;99.90
16263;DHT22;8239;48.594;8.598;2023-10-13T06:25:05;11.70;99.90
16263;DHT22;8239;48.594;8.598;2023-10-13T06:27:50;12.50;99.90
16263;DHT22;8239;48.594;8.598;2023-10-13T06:30:36;13.40;99.90
16263;DHT22;8239;48.594;8.598;2023-10-13T06:33:04;14.20;99.90
16263;DHT22;8239;48.594;8.598;2023-10-13T06:35:31;15.00;99.90
16263;DHT22;8239;48.594;8.598;2023-10-13T06:38:00;15.70;99.90
16263;DHT22;8239;48.594;8.598;2023-10-13T06:40:27;16.40;98.70
16263;DHT22;8239;48.594;8.598;2023-10-13T06:42:59;16.80;93.80
16263;DHT22;8239;48.594;8.598;2023-10-13T06:45:40;16.80;91.10
16263;DHT22;8239;48.594;8.598;2023-10-13T06:48:07;16.50;90.00
16263;DHT22;8239;48.594;8.598;2023-10-13T06:50:37;16.40;90.20
16263;DHT22;8239;48.594;8.598;2023-10-13T06:53:07;16.30;89.30
16263;DHT22;8239;48.594;8.598;2023-10-13T06:55:38;16.40;90.10
16263;DHT22;8239;48.594;8.598;2023-10-13T06:58:06;16.70;90.40
16263;DHT22;8239;48.594;8.598;2023-10-13T07:00:40;17.30;90.20
16263;DHT22;8239;48.594;8.598;2023-10-13T07:03:18;18.30;88.00
16263;DHT22;8239;48.594;8.598;2023-10-13T07:05:45;19.50;83.00
16263;DHT22;8239;48.594;8.598;2023-10-13T07:08:14;20.60;78.90
16263;DHT22;8239;48.594;8.598;2023-10-13T07:10:47;21.50;72.40
16263;DHT22;8239;48.594;8.598;2023-10-13T07:13:17;22.40;67.90
16263;DHT22;8239;48.594;8.598;2023-10-13T07:15:46;23.00;65.30
16263;DHT22;8239;48.594;8.598;2023-10-13T07:18:14;23.80;63.00
16263;DHT22;8239;48.594;8.598;2023-10-13T07:20:43;24.60;60.60
16263;DHT22;8239;48.594;8.598;2023-10-13T07:23:12;25.40;58.10
16263;DHT22;8239;48.594;8.598;2023-10-13T07:25:51;26.20;56.10
16263;DHT22;8239;48.594;8.598;2023-10-13T07:28:19;26.90;54.40
16263;DHT22;8239;48.594;8.598;2023-10-13T07:30:48;27.60;52.80
16263;DHT22;8239;48.594;8.598;2023-10-13T07:33:36;28.30;51.00
16263;DHT22;8239;48.594;8.598;2023-10-13T07:36:06;29.00;48.90
16263;DHT22;8239;48.594;8.598;2023-10-13T07:38:41;29.60;47.30
16263;DHT22;8239;48.594;8.598;2023-10-13T07:41:09;30.30;45.90
16263;DHT22;8239;48.594;8.598;2023-10-13T07:43:41;30.80;44.60
16263;DHT22;8239;48.594;8.598;2023-10-13T07:46:10;31.30;44.60
16263;DHT22;8239;48.594;8.598;2023-10-13T07:48:37;31.80;43.20
16263;DHT22;8239;48.594;8.598;2023-10-13T07:51:06;32.30;42.20
16263;DHT22;8239;48.594;8.598;2023-10-13T07:53:36;32.80;42.00
16263;DHT22;8239;48.594;8.598;2023-10-13T07:56:06;33.30;41.20
16263;DHT22;8239;48.594;8.598;2023-10-13T07:58:34;33.80;40.20
16263;DHT22;8239;48.594;8.598;2023-10-13T08:01:01;34.20;39.00
16263;DHT22;8239;48.594;8.598;2023-10-13T08:03:36;34.60;37.90
16263;DHT22;8239;48.594;8.598;2023-10-13T08:06:11;35.10;37.30
16263;DHT22;8239;48.594;8.598;2023-10-13T08:08:51;35.40;36.90
16263;DHT22;8239;48.594;8.598;2023-10-13T08:11:21;35.60;36.60
16263;DHT22;8239;48.594;8.598;2023-10-13T08:14:00;35.70;35.60
16263;DHT22;8239;48.594;8.598;2023-10-13T08:16:37;36.00;34.20
16263;DHT22;8239;48.594;8.598;2023-10-13T08:19:20;36.40;33.50
16263;DHT22;8239;48.594;8.598;2023-10-13T08:21:53;36.80;32.10
16263;DHT22;8239;48.594;8.598;2023-10-13T08:24:23;37.00;31.70
16263;DHT22;8239;48.594;8.598;2023-10-13T08:27:16;37.40;30.90
16263;DHT22;8239;48.594;8.598;2023-10-13T08:29:57;37.80;30.80
16263;DHT22;8239;48.594;8.598;2023-10-13T08:32:40;38.10;30.80
16263;DHT22;8239;48.594;8.598;2023-10-13T08:35:23;38.50;31.30
16263;DHT22;8239;48.594;8.598;2023-10-13T08:38:01;39.00;30.80
16263;DHT22;8239;48.594;8.598;2023-10-13T08:40:43;39.30;30.20
16263;DHT22;8239;48.594;8.598;2023-10-13T08:43:32;39.60;29.30
16263;DHT22;8239;48.594;8.598;2023-10-13T08:46:10;39.90;28.70
16263;DHT22;8239;48.594;8.598;2023-10-13T08:48:53;39.70;28.00
16263;DHT22;8239;48.594;8.598;2023-10-13T08:51:34;39.60;27.60
16263;DHT22;8239;48.594;8.598;2023-10-13T08:54:13;39.80;27.90
16263;DHT22;8239;48.594;8.598;2023-10-13T08:56:46;40.20;27.00
16263;DHT22;8239;48.594;8.598;2023-10-13T08:59:20;40.60;26.10
16263;DHT22;8239;48.594;8.598;2023-10-13T09:01:49;40.90;26.20
16263;DHT22;8239;48.594;8.598;2023-10-13T09:04:25;41.20;26.30
16263;DHT22;8239;48.594;8.598;2023-10-13T09:06:56;41.70;26.50
16263;DHT22;8239;48.594;8.598;2023-10-13T09:09:47;42.00;26.60
16263;DHT22;8239;48.594;8.598;2023-10-13T09:12:37;42.00;25.80
16263;DHT22;8239;48.594;8.598;2023-10-13T09:15:07;42.30;25.30
16263;DHT22;8239;48.594;8.598;2023-10-13T09:17:46;42.50;24.60
16263;DHT22;8239;48.594;8.598;2023-10-13T09:20:38;43.00;24.30
16263;DHT22;8239;48.594;8.598;2023-10-13T09:23:11;43.50;24.00
16263;DHT22;8239;48.594;8.598;2023-10-13T09:25:39;43.60;23.50
16263;DHT22;8239;48.594;8.598;2023-10-13T09:28:20;43.80;23.20
16263;DHT22;8239;48.594;8.598;2023-10-13T09:30:48;43.90;23.20
16263;DHT22;8239;48.594;8.598;2023-10-13T09:33:20;43.90;23.10
16263;DHT22;8239;48.594;8.598;2023-10-13T09:35:54;44.00;22.90
16263;DHT22;8239;48.594;8.598;2023-10-13T09:38:26;43.90;22.40
16263;DHT22;8239;48.594;8.598;2023-10-13T09:40:53;43.70;22.50
16263;DHT22;8239;48.594;8.598;2023-10-13T09:43:23;43.50;23.20
16263;DHT22;8239;48.594;8.598;2023-10-13T09:45:56;43.40;22.30
16263;DHT22;8239;48.594;8.598;2023-10-13T09:48:32;43.50;23.10
16263;DHT22;8239;48.594;8.598;2023-10-13T09:51:01;43.30;22.30
16263;DHT22;8239;48.594;8.598;2023-10-13T09:53:32;42.80;22.80
16263;DHT22;8239;48.594;8.598;2023-10-13T09:56:03;41.30;23.40
16263;DHT22;8239;48.594;8.598;2023-10-13T09:58:46;39.30;23.80
16263;DHT22;8239;48.594;8.598;2023-10-13T10:01:22;37.40;25.30
16263;DHT22;8239;48.594;8.598;2023-10-13T10:04:07;36.50;26.20
16263;DHT22;8239;48.594;8.598;2023-10-13T10:06:34;35.90;26.20
16263;DHT22;8239;48.594;8.598;2023-10-13T10:09:07;35.30;26.20
16263;DHT22;8239;48.594;8.598;2023-10-13T10:14:46;33.10;27.20
16263;DHT22;8239;48.594;8.598;2023-10-13T10:17:20;32.50;27.60
16263;DHT22;8239;48.594;8.598;2023-10-13T10:19:48;32.00;28.20
16263;DHT22;8239;48.594;8.598;2023-10-13T10:22:25;31.50;28.40
16263;DHT22;8239;48.594;8.598;2023-10-13T10:24:58;30.80;28.90
16263;DHT22;8239;48.594;8.598;2023-10-13T10:27:27;30.40;29.60
16263;DHT22;8239;48.594;8.598;2023-10-13T10:29:54;30.30;30.10
16263;DHT22;8239;48.594;8.598;2023-10-13T10:32:32;30.40;30.10
16263;DHT22;8239;48.594;8.598;2023-10-13T10:35:04;30.60;29.80
16263;DHT22;8239;48.594;8.598;2023-10-13T10:37:40;31.30;29.90
16263;DHT22;8239;48.594;8.598;2023-10-13T10:40:14;32.50;29.20
16263;DHT22;8239;48.594;8.598;2023-10-13T10:42:58;33.60;27.90
16263;DHT22;8239;48.594;8.598;2023-10-13T10:45:26;34.50;27.30
16263;DHT22;8239;48.594;8.598;2023-10-13T10:47:58;35.10;26.40
16263;DHT22;8239;48.594;8.598;2023-10-13T10:50:26;35.40;26.20
16263;DHT22;8239;48.594;8.598;2023-10-13T10:53:03;35.70;26.40
16263;DHT22;8239;48.594;8.598;2023-10-13T10:55:36;36.00;26.00
16263;DHT22;8239;48.594;8.598;2023-10-13T10:58:04;36.10;25.30
16263;DHT22;8239;48.594;8.598;2023-10-13T11:00:32;35.90;26.00
16263;DHT22;8239;48.594;8.598;2023-10-13T11:03:11;35.30;26.00
16263;DHT22;8239;48.594;8.598;2023-10-13T11:05:45;34.90;27.00
16263;DHT22;8239;48.594;8.598;2023-10-13T11:08:23;34.80;26.90
16263;DHT22;8239;48.594;8.598;2023-10-13T11:10:58;34.80;27.20
16263;DHT22;8239;48.594;8.598;2023-10-13T11:13:27;35.10;27.30
16263;DHT22;8239;48.594;8.598;2023-10-13T11:15:57;35.70;26.40
16263;DHT22;8239;48.594;8.598;2023-10-13T11:18:29;36.10;26.40
16263;DHT22;8239;48.594;8.598;2023-10-13T11:21:02;36.50;26.00
16263;DHT22;8239;48.594;8.598;2023-10-13T11:23:32;36.90;25.80
16263;DHT22;8239;48.594;8.598;2023-10-13T11:26:03;37.10;25.50
16263;DHT22;8239;48.594;8.598;2023-10-13T11:28:31;37.50;25.60
16263;DHT22;8239;48.594;8.598;2023-10-13T11:31:00;37.70;25.00
16263;DHT22;8239;48.594;8.598;2023-10-13T11:33:36;37.80;24.70
16263;DHT22;8239;48.594;8.598;2023-10-13T11:36:07;37.80;24.50
16263;DHT22;8239;48.594;8.598;2023-10-13T11:38:42;37.90;24.80
16263;DHT22;8239;48.594;8.598;2023-10-13T11:41:17;37.70;24.50
16263;DHT22;8239;48.594;8.598;2023-10-13T11:43:46;37.60;24.70
16263;DHT22;8239;48.594;8.598;2023-10-13T11:46:31;37.60;24.60
16263;DHT22;8239;48.594;8.598;2023-10-13T11:49:15;37.70;25.30
16263;DHT22;8239;48.594;8.598;2023-10-13T11:51:50;38.20;25.00
16263;DHT22;8239;48.594;8.598;2023-10-13T11:54:18;38.40;24.10
16263;DHT22;8239;48.594;8.598;2023-10-13T11:56:47;38.40;23.80
16263;DHT22;8239;48.594;8.598;2023-10-13T11:59:14;38.30;23.60
16263;DHT22;8239;48.594;8.598;2023-10-13T12:01:45;38.30;24.20
16263;DHT22;8239;48.594;8.598;2023-10-13T12:04:30;38.50;24.40
16263;DHT22;8239;48.594;8.598;2023-10-13T12:07:06;38.70;23.70
16263;DHT22;8239;48.594;8.598;2023-10-13T12:09:43;38.60;23.20
16263;DHT22;8239;48.594;8.598;2023-10-13T12:12:30;38.00;23.40
16263;DHT22;8239;48.594;8.598;2023-10-13T12:14:59;37.80;23.70
16263;DHT22;8239;48.594;8.598;2023-10-13T12:17:35;38.10;24.00
16263;DHT22;8239;48.594;8.598;2023-10-13T12:20:06;38.30;23.20
16263;DHT22;8239;48.594;8.598;2023-10-13T12:22:36;38.30;23.40
16263;DHT22;8239;48.594;8.598;2023-10-13T12:25:05;38.40;23.30
16263;DHT22;8239;48.594;8.598;2023-10-13T12:27:46;38.20;23.40
16263;DHT22;8239;48.594;8.598;2023-10-13T12:30:14;38.20;23.50
16263;DHT22;8239;48.594;8.598;2023-10-13T12:32:48;38.30;23.60
16263;DHT22;8239;48.594;8.598;2023-10-13T12:35:24;38.30;23.60
16263;DHT22;8239;48.594;8.598;2023-10-13T12:37:56;38.30;23.30
16263;DHT22;8239;48.594;8.598;2023-10-13T12:40:31;38.50;23.60
16263;DHT22;8239;48.594;8.598;2023-10-13T12:43:17;38.60;23.60
16263;DHT22;8239;48.594;8.598;2023-10-13T12:46:01;38.60;23.50
16263;DHT22;8239;48.594;8.598;2023-10-13T12:48:45;38.30;23.10
16263;DHT22;8239;48.594;8.598;2023-10-13T12:51:41;38.10;23.50
16263;DHT22;8239;48.594;8.598;2023-10-13T12:54:16;37.70;23.80
16263;DHT22;8239;48.594;8.598;2023-10-13T12:56:48;37.00;23.70
16263;DHT22;8239;48.594;8.598;2023-10-13T12:59:23;36.80;24.40
16263;DHT22;8239;48.594;8.598;2023-10-13T13:01:52;37.00;24.70
16263;DHT22;8239;48.594;8.598;2023-10-13T13:04:19;37.20;24.00
16263;DHT22;8239;48.594;8.598;2023-10-13T13:06:47;37.30;24.00
16263;DHT22;8239;48.594;8.598;2023-10-13T13:09:15;37.70;24.00
16263;DHT22;8239;48.594;8.598;2023-10-13T13:11:51;37.90;23.90
16263;DHT22;8239;48.594;8.598;2023-10-13T13:14:24;38.20;23.80
16263;DHT22;8239;48.594;8.598;2023-10-13T13:16:54;37.90;23.40
16263;DHT22;8239;48.594;8.598;2023-10-13T13:19:30;37.60;23.60
16263;DHT22;8239;48.594;8.598;2023-10-13T13:21:59;36.90;23.80
16263;DHT22;8239;48.594;8.598;2023-10-13T13:24:26;36.70;24.50
16263;DHT22;8239;48.594;8.598;2023-10-13T13:26:55;36.70;24.10
16263;DHT22;8239;48.594;8.598;2023-10-13T13:29:23;36.80;24.40
16263;DHT22;8239;48.594;8.598;2023-10-13T13:31:52;36.90;24.20
16263;DHT22;8239;48.594;8.598;2023-10-13T13:34:18;36.90;24.10
16263;DHT22;8239;48.594;8.598;2023-10-13T13:36:47;36.40;24.50
16263;DHT22;8239;48.594;8.598;2023-10-13T13:39:18;36.30;24.70
16263;DHT22;8239;48.594;8.598;2023-10-13T13:41:54;36.30;24.30
16263;DHT22;8239;48.594;8.598;2023-10-13T13:44:24;36.20;24.60
16263;DHT22;8239;48.594;8.598;2023-10-13T13:46:56;36.30;24.50
16263;DHT22;8239;48.594;8.598;2023-10-13T13:49:23;36.50;24.30
16263;DHT22;8239;48.594;8.598;2023-10-13T13:51:56;36.60;24.30
16263;DHT22;8239;48.594;8.598;2023-10-13T13:54:29;36.80;24.00
16263;DHT22;8239;48.594;8.598;2023-10-13T13:56:56;36.80;24.00
16263;DHT22;8239;48.594;8.598;2023-10-13T13:59:25;36.80;24.00
16263;DHT22;8239;48.594;8.598;2023-10-13T14:01:52;36.70;24.10
16263;DHT22;8239;48.594;8.598;2023-10-13T14:04:19;36.70;24.20
16263;DHT22;8239;48.594;8.598;2023-10-13T14:06:47;36.80;24.30
16263;DHT22;8239;48.594;8.598;2023-10-13T14:09:16;37.00;24.20
16263;DHT22;8239;48.594;8.598;2023-10-13T14:11:58;37.10;23.90
16263;DHT22;8239;48.594;8.598;2023-10-13T14:14:44;37.00;24.10
16263;DHT22;8239;48.594;8.598;2023-10-13T14:17:15;36.80;24.00
16263;DHT22;8239;48.594;8.598;2023-10-13T14:19:42;36.80;24.30
16263;DHT22;8239;48.594;8.598;2023-10-13T14:22:11;37.00;24.20
16263;DHT22;8239;48.594;8.598;2023-10-13T14:24:38;37.00;23.90
16263;DHT22;8239;48.594;8.598;2023-10-13T14:27:13;36.90;24.10
16263;DHT22;8239;48.594;8.598;2023-10-13T14:29:44;36.90;24.40
16263;DHT22;8239;48.594;8.598;2023-10-13T14:32:13;37.00;24.20
16263;DHT22;8239;48.594;8.598;2023-10-13T14:34:41;37.10;24.40
16263;DHT22;8239;48.594;8.598;2023-10-13T14:37:09;37.20;24.00
16263;DHT22;8239;48.594;8.598;2023-10-13T14:39:38;37.50;24.00
16263;DHT22;8239;48.594;8.598;2023-10-13T14:42:05;37.80;23.90
16263;DHT22;8239;48.594;8.598;2023-10-13T14:44:32;37.80;23.20
16263;DHT22;8239;48.594;8.598;2023-10-13T14:47:01;37.80;23.40
16263;DHT22;8239;48.594;8.598;2023-10-13T14:49:31;37.70;23.30
16263;DHT22;8239;48.594;8.598;2023-10-13T14:51:58;37.60;23.40
16263;DHT22;8239;48.594;8.598;2023-10-13T14:54:25;37.50;23.80
16263;DHT22;8239;48.594;8.598;2023-10-13T14:57:00;37.40;23.20
16263;DHT22;8239;48.594;8.598;2023-10-13T14:59:27;37.00;23.70
16263;DHT22;8239;48.594;8.598;2023-10-13T15:02:01;36.80;23.70
16263;DHT22;8239;48.594;8.598;2023-10-13T15:04:28;36.60;23.60
16263;DHT22;8239;48.594;8.598;2023-10-13T15:06:58;36.50;23.50
16263;DHT22;8239;48.594;8.598;2023-10-13T15:09:28;36.20;23.00
16263;DHT22;8239;48.594;8.598;2023-10-13T15:11:55;35.90;23.20
16263;DHT22;8239;48.594;8.598;2023-10-13T15:14:22;35.80;23.50
16263;DHT22;8239;48.594;8.598;2023-10-13T15:16:50;35.50;23.80
16263;DHT22;8239;48.594;8.598;2023-10-13T15:19:19;35.10;24.00
16263;DHT22;8239;48.594;8.598;2023-10-13T15:21:46;34.80;24.10
16263;DHT22;8239;48.594;8.598;2023-10-13T15:24:16;34.40;24.10
16263;DHT22;8239;48.594;8.598;2023-10-13T15:26:44;34.10;24.50
16263;DHT22;8239;48.594;8.598;2023-10-13T15:29:14;33.90;24.80
16263;DHT22;8239;48.594;8.598;2023-10-13T15:31:42;33.80;24.90
16263;DHT22;8239;48.594;8.598;2023-10-13T15:34:21;33.80;25.10
16263;DHT22;8239;48.594;8.598;2023-10-13T15:36:49;33.70;24.60
16263;DHT22;8239;48.594;8.598;2023-10-13T15:39:18;33.70;25.10
16263;DHT22;8239;48.594;8.598;2023-10-13T15:41:49;33.50;25.00
16263;DHT22;8239;48.594;8.598;2023-10-13T15:44:19;33.30;25.10
16263;DHT22;8239;48.594;8.598;2023-10-13T15:46:52;33.10;25.10
16263;DHT22;8239;48.594;8.598;2023-10-13T15:49:21;32.90;25.20
16263;DHT22;8239;48.594;8.598;2023-10-13T15:51:48;32.50;25.50
16263;DHT22;8239;48.594;8.598;2023-10-13T15:54:17;32.20;26.00
16263;DHT22;8239;48.594;8.598;2023-10-13T15:56:44;31.80;26.10
16263;DHT22;8239;48.594;8.598;2023-10-13T15:59:11;31.50;26.40
16263;DHT22;8239;48.594;8.598;2023-10-13T16:01:39;31.10;26.80
16263;DHT22;8239;48.594;8.598;2023-10-13T16:04:06;30.70;27.00
16263;DHT22;8239;48.594;8.598;2023-10-13T16:06:39;30.40;27.50
16263;DHT22;8239;48.594;8.598;2023-10-13T16:09:06;30.10;28.00
16263;DHT22;8239;48.594;8.598;2023-10-13T16:11:40;29.70;28.10
16263;DHT22;8239;48.594;8.598;2023-10-13T16:14:08;29.20;28.60
16263;DHT22;8239;48.594;8.598;2023-10-13T16:16:36;28.90;29.00
16263;DHT22;8239;48.594;8.598;2023-10-13T16:19:03;28.50;29.40
16263;DHT22;8239;48.594;8.598;2023-10-13T16:21:31;28.20;29.80
16263;DHT22;8239;48.594;8.598;2023-10-13T16:24:00;27.70;30.30
16263;DHT22;8239;48.594;8.598;2023-10-13T16:26:28;27.20;30.80
16263;DHT22;8239;48.594;8.598;2023-10-13T16:28:56;26.60;31.70